Time;durP1;ratioP1;P1;durP2;ratioP2;P2;SDS_P1;SDS_P2;PMS_P1;PMS_P2;Temp;Humidity;BMP_temperature;BMP_pressure;BME280_temperature;BME280_humidity;BME280_pressure;Samples;Min_cycle;Max_cycle;Signal;HPM_P1;HPM_P2
2021/12/12 00:02:24;;;;;;;52.85;29.83;;;4.50;99.90;;;;;;4995871;28;20034;-64
2021/12/12 00:04:51;;;;;;;49.20;27.77;;;4.50;99.90;;;;;;4998064;28;20401;-64
2021/12/12 00:07:22;;;;;;;53.65;29.98;;;4.50;99.90;;;;;;4995375;28;20038;-63
2021/12/12 00:09:52;;;;;;;47.33;27.65;;;4.50;99.90;;;;;;4995656;28;20113;-64
2021/12/12 00:12:29;;;;;;;56.22;29.30;;;4.50;99.90;;;;;;4997920;28;20374;-64
2021/12/12 00:14:55;;;;;;;50.45;28.95;;;4.50;99.90;;;;;;4997071;28;20041;-63
2021/12/12 00:17:22;;;;;;;56.42;29.00;;;4.50;99.90;;;;;;4967440;28;20129;-63
2021/12/12 00:19:48;;;;;;;56.65;30.30;;;4.50;99.90;;;;;;4997792;28;20138;-64
2021/12/12 00:22:24;;;;;;;60.88;29.98;;;4.50;99.90;;;;;;4982303;28;20069;-64
2021/12/12 00:24:51;;;;;;;64.35;30.70;;;4.60;99.90;;;;;;4990069;28;20046;-64
2021/12/12 00:27:19;;;;;;;54.10;29.55;;;4.50;99.90;;;;;;4995833;28;20698;-64
2021/12/12 00:29:45;;;;;;;55.67;29.23;;;4.60;99.90;;;;;;4994514;28;20085;-64
2021/12/12 00:32:14;;;;;;;51.72;29.63;;;4.60;99.90;;;;;;4994911;28;20061;-64
2021/12/12 00:34:49;;;;;;;65.07;29.40;;;4.60;99.90;;;;;;4996174;28;20042;-63
2021/12/12 00:37:16;;;;;;;58.92;31.35;;;4.60;99.90;;;;;;5006548;28;20057;-63
2021/12/12 00:39:50;;;;;;;50.47;29.85;;;4.60;99.90;;;;;;4968056;28;20037;-63
2021/12/12 00:42:25;;;;;;;46.05;28.52;;;4.60;99.90;;;;;;4996725;28;20058;-63
2021/12/12 00:44:58;;;;;;;52.47;29.00;;;4.60;99.90;;;;;;4991276;28;20082;-63
2021/12/12 00:47:25;;;;;;;55.88;29.92;;;4.60;99.90;;;;;;4992935;28;20093;-63
2021/12/12 00:49:54;;;;;;;55.60;29.65;;;4.70;99.90;;;;;;4983864;28;20057;-63
2021/12/12 00:52:21;;;;;;;51.22;28.42;;;4.60;99.90;;;;;;5026918;22;20490;-57
2021/12/12 00:54:49;;;;;;;50.25;27.60;;;4.70;99.90;;;;;;4998160;28;20473;-59
2021/12/12 00:57:18;;;;;;;55.03;30.00;;;4.70;99.90;;;;;;4989171;28;20477;-57
2021/12/12 00:59:46;;;;;;;52.40;29.00;;;4.70;99.90;;;;;;4992664;28;20050;-58
2021/12/12 01:02:21;;;;;;;52.03;28.05;;;4.70;99.90;;;;;;4998979;28;20042;-58
2021/12/12 01:04:51;;;;;;;54.30;28.75;;;4.70;99.90;;;;;;5004686;28;20042;-60
2021/12/12 01:07:23;;;;;;;54.15;29.75;;;4.70;99.90;;;;;;5002590;28;20057;-59
2021/12/12 01:09:53;;;;;;;58.97;31.52;;;4.70;99.90;;;;;;5024634;22;20054;-64
2021/12/12 01:12:23;;;;;;;58.85;29.48;;;4.70;99.90;;;;;;5002213;28;20073;-63
2021/12/12 01:14:54;;;;;;;53.80;29.70;;;4.70;99.90;;;;;;5028642;28;20132;-63
2021/12/12 01:17:34;;;;;;;57.03;31.00;;;4.70;99.90;;;;;;5016055;28;20172;-62
2021/12/12 01:20:20;;;;;;;60.38;29.17;;;4.80;99.90;;;;;;5004422;28;20099;-63
2021/12/12 01:22:50;;;;;;;71.20;34.53;;;4.80;99.90;;;;;;5011283;28;20053;-62
2021/12/12 01:25:32;;;;;;;62.45;32.75;;;4.80;99.90;;;;;;4981151;28;20077;-63
2021/12/12 01:27:59;;;;;;;63.08;30.40;;;4.80;99.90;;;;;;5017251;28;20073;-63
2021/12/12 01:30:26;;;;;;;59.50;30.60;;;4.80;99.90;;;;;;4967687;28;20037;-62
2021/12/12 01:32:57;;;;;;;59.63;31.08;;;4.80;99.90;;;;;;4992374;28;20122;-63
2021/12/12 01:35:24;;;;;;;61.20;31.70;;;4.80;99.90;;;;;;4964659;28;20037;-61
2021/12/12 01:40:44;;;;;;;60.33;29.35;;;4.90;99.90;;;;;;5012879;28;20038;-63
2021/12/12 01:43:22;;;;;;;53.17;29.88;;;4.80;99.90;;;;;;4996317;28;20546;-63
2021/12/12 01:46:04;;;;;;;55.88;32.05;;;4.80;99.90;;;;;;5008418;28;20042;-63
2021/12/12 01:48:57;;;;;;;56.08;30.50;;;4.90;99.90;;;;;;4981796;28;20096;-63
2021/12/12 01:51:23;;;;;;;65.15;31.95;;;4.90;99.90;;;;;;4993469;28;20050;-64
2021/12/12 01:53:54;;;;;;;55.92;30.73;;;4.90;99.90;;;;;;4996804;28;20069;-63
2021/12/12 01:56:27;;;;;;;57.95;31.83;;;4.90;99.90;;;;;;4993207;28;20127;-63
2021/12/12 01:58:59;;;;;;;50.73;30.30;;;4.90;99.90;;;;;;5013502;28;20048;-64
2021/12/12 02:01:37;;;;;;;57.33;31.45;;;4.90;99.90;;;;;;4992837;28;20049;-63
2021/12/12 02:04:10;;;;;;;53.30;30.05;;;4.90;99.90;;;;;;4999964;28;20041;-62
2021/12/12 02:06:37;;;;;;;58.50;31.17;;;4.90;99.90;;;;;;5000327;28;20069;-65
2021/12/12 02:09:05;;;;;;;65.90;31.83;;;4.90;99.90;;;;;;4994833;28;20042;-64
2021/12/12 02:11:33;;;;;;;55.92;30.25;;;4.90;99.90;;;;;;5004099;28;20499;-63
2021/12/12 02:14:09;;;;;;;56.53;30.63;;;4.90;99.90;;;;;;5016707;28;20613;-62
2021/12/12 02:16:38;;;;;;;63.47;29.48;;;4.90;99.90;;;;;;4998518;28;20042;-64
2021/12/12 02:19:06;;;;;;;59.78;30.73;;;5.00;99.90;;;;;;4998440;28;20438;-64
2021/12/12 02:21:48;;;;;;;65.40;31.02;;;4.80;99.90;;;;;;5000184;28;20037;-64
2021/12/12 02:35:47;;;;;;;63.33;29.35;;;5.00;99.90;;;;;;5019165;28;20042;-64
2021/12/12 02:38:23;;;;;;;65.45;30.17;;;5.00;99.90;;;;;;5002130;28;20087;-64
2021/12/12 02:40:55;;;;;;;60.38;29.45;;;5.00;99.90;;;;;;4992695;28;20049;-63
2021/12/12 02:43:24;;;;;;;59.55;30.30;;;5.00;99.90;;;;;;4998952;28;20399;-64
2021/12/12 02:45:55;;;;;;;58.10;31.02;;;5.00;99.90;;;;;;4995009;28;20046;-63
2021/12/12 02:48:37;;;;;;;58.10;30.95;;;5.00;99.90;;;;;;4987402;28;20044;-64
2021/12/12 02:51:07;;;;;;;55.38;28.38;;;5.00;99.90;;;;;;4985146;28;20048;-64
2021/12/12 02:53:41;;;;;;;51.17;28.00;;;5.00;99.90;;;;;;4995506;28;20042;-64
2021/12/12 02:56:14;;;;;;;53.15;28.50;;;5.10;99.90;;;;;;5003676;28;20033;-63
2021/12/12 02:58:41;;;;;;;57.63;27.85;;;5.10;99.90;;;;;;5009896;28;20054;-64
2021/12/12 03:01:16;;;;;;;57.90;28.60;;;5.20;99.90;;;;;;5007291;28;20041;-63
2021/12/12 03:03:43;;;;;;;50.85;29.27;;;5.20;99.90;;;;;;4989370;28;20045;-61
2021/12/12 03:06:12;;;;;;;55.78;29.30;;;5.20;99.90;;;;;;5000955;28;20092;-63
2021/12/12 03:08:40;;;;;;;52.85;28.55;;;5.30;99.90;;;;;;4992702;28;20048;-64
2021/12/12 03:11:06;;;;;;;52.90;27.92;;;5.30;99.90;;;;;;4985506;28;20037;-64
2021/12/12 03:13:33;;;;;;;53.90;28.45;;;5.30;99.90;;;;;;5007520;28;20049;-61
2021/12/12 03:15:59;;;;;;;52.20;27.63;;;5.30;99.90;;;;;;4998633;28;20137;-62
2021/12/12 03:18:40;;;;;;;53.28;27.15;;;5.40;99.90;;;;;;4999807;28;20121;-61
2021/12/12 03:21:30;;;;;;;47.65;27.02;;;5.40;99.90;;;;;;4997144;28;20068;-62
2021/12/12 03:23:59;;;;;;;47.90;25.58;;;5.40;99.90;;;;;;4995931;28;20057;-64
2021/12/12 03:26:25;;;;;;;48.33;27.13;;;5.40;99.90;;;;;;4978403;28;20488;-63
2021/12/12 03:28:54;;;;;;;43.85;25.95;;;5.40;99.90;;;;;;5015589;28;20050;-61
2021/12/12 03:31:49;;;;;;;50.15;25.95;;;5.40;99.90;;;;;;4996530;28;20487;-63
2021/12/12 03:34:18;;;;;;;44.75;24.92;;;5.40;99.90;;;;;;4999477;28;20038;-63
2021/12/12 03:36:45;;;;;;;44.30;25.17;;;5.50;99.90;;;;;;4994714;28;20052;-61
2021/12/12 03:39:18;;;;;;;41.38;23.55;;;5.40;99.90;;;;;;4999948;28;20040;-62
2021/12/12 03:41:46;;;;;;;42.47;24.40;;;5.50;99.90;;;;;;4992785;28;20115;-62
2021/12/12 03:44:18;;;;;;;38.53;22.90;;;5.50;99.90;;;;;;4994455;28;20077;-64
2021/12/12 03:46:46;;;;;;;38.15;22.17;;;5.50;99.90;;;;;;4995764;28;20041;-63
2021/12/12 03:49:12;;;;;;;39.20;24.02;;;5.50;99.90;;;;;;4997603;28;20039;-64
2021/12/12 03:51:41;;;;;;;36.97;21.55;;;5.50;99.90;;;;;;5016466;28;20099;-64
2021/12/12 03:54:07;;;;;;;35.40;21.85;;;5.50;99.90;;;;;;4989756;28;20040;-62
2021/12/12 03:56:33;;;;;;;32.50;21.30;;;5.50;99.90;;;;;;5000390;28;20391;-61
2021/12/12 03:58:59;;;;;;;34.72;21.13;;;5.50;99.90;;;;;;5001350;28;20561;-61
2021/12/12 04:01:38;;;;;;;34.83;21.83;;;5.60;99.90;;;;;;4994408;28;20125;-61
2021/12/12 04:04:15;;;;;;;35.42;19.83;;;5.60;99.90;;;;;;4974961;28;20450;-62
2021/12/12 04:06:40;;;;;;;31.17;19.98;;;5.60;99.90;;;;;;4980014;28;20492;-64
2021/12/12 04:09:08;;;;;;;33.65;19.15;;;5.60;99.90;;;;;;5013320;28;20073;-64
2021/12/12 04:11:38;;;;;;;35.13;20.13;;;5.60;99.90;;;;;;5009625;28;20115;-62
2021/12/12 04:14:05;;;;;;;30.20;20.08;;;5.60;99.90;;;;;;4994400;28;20085;-64
2021/12/12 04:16:34;;;;;;;28.85;19.48;;;5.60;99.90;;;;;;4988965;28;20038;-61
2021/12/12 04:19:02;;;;;;;30.20;19.20;;;5.60;99.90;;;;;;4996212;28;20045;-63
2021/12/12 04:21:29;;;;;;;30.73;19.40;;;5.60;99.90;;;;;;4987326;28;20483;-63
2021/12/12 04:23:55;;;;;;;24.48;18.15;;;5.60;99.90;;;;;;4997782;28;20697;-62
2021/12/12 04:26:42;;;;;;;28.05;18.42;;;5.70;99.90;;;;;;4991224;28;20042;-63
2021/12/12 04:29:14;;;;;;;27.67;18.77;;;5.70;99.90;;;;;;4996005;28;20050;-63
2021/12/12 04:31:48;;;;;;;29.92;18.23;;;5.70;99.90;;;;;;4996122;28;20104;-63
2021/12/12 04:34:14;;;;;;;30.38;17.73;;;5.70;99.90;;;;;;5011859;28;20116;-63
2021/12/12 04:36:43;;;;;;;28.45;18.92;;;5.70;99.90;;;;;;4993006;28;20042;-62
2021/12/12 04:39:38;;;;;;;27.35;18.42;;;5.70;99.90;;;;;;5008884;28;20046;-63
2021/12/12 04:42:15;;;;;;;27.10;18.33;;;5.70;99.90;;;;;;5007673;28;20093;-61
2021/12/12 04:44:42;;;;;;;27.13;17.60;;;5.80;99.90;;;;;;4988942;28;20514;-61
2021/12/12 04:50:41;;;;;;;23.27;16.70;;;5.80;99.90;;;;;;5006548;28;20041;-63
2021/12/12 04:53:37;;;;;;;27.73;17.25;;;5.80;99.90;;;;;;4984616;28;20849;-64
2021/12/12 04:56:35;;;;;;;25.17;18.05;;;5.80;99.90;;;;;;4941419;28;20043;-62
2021/12/12 04:59:04;;;;;;;28.48;17.73;;;5.80;99.90;;;;;;5003923;28;20125;-62
2021/12/12 05:01:44;;;;;;;27.92;18.15;;;5.80;99.90;;;;;;4982247;28;20537;-63
2021/12/12 05:04:23;;;;;;;29.13;17.48;;;5.90;99.90;;;;;;4987188;28;20046;-63
2021/12/12 05:07:07;;;;;;;25.58;17.10;;;5.80;99.90;;;;;;4983858;28;20380;-61
2021/12/12 05:09:55;;;;;;;28.17;18.50;;;5.80;99.90;;;;;;4988867;28;20042;-63
2021/12/12 05:12:29;;;;;;;28.27;17.88;;;5.90;99.90;;;;;;4981772;28;20100;-63
2021/12/12 05:15:01;;;;;;;24.42;18.65;;;5.90;99.90;;;;;;4971980;28;20038;-63
2021/12/12 05:17:44;;;;;;;31.33;19.30;;;5.90;99.90;;;;;;4981045;28;20045;-63
2021/12/12 05:20:19;;;;;;;26.92;19.23;;;5.90;99.90;;;;;;4991579;28;20091;-62
2021/12/12 05:22:49;;;;;;;28.25;19.90;;;5.90;99.90;;;;;;4997358;28;20459;-63
2021/12/12 05:25:23;;;;;;;29.48;19.88;;;5.90;99.90;;;;;;4999314;28;20045;-62
2021/12/12 05:27:53;;;;;;;30.63;21.40;;;5.90;99.90;;;;;;5005681;28;20069;-62
2021/12/12 05:30:23;;;;;;;33.13;21.65;;;5.90;99.90;;;;;;4991931;28;20064;-62
2021/12/12 05:32:49;;;;;;;35.60;21.10;;;6.00;99.90;;;;;;4984203;28;20042;-63
2021/12/12 05:35:20;;;;;;;30.35;20.48;;;6.00;99.90;;;;;;4985867;28;20037;-62
2021/12/12 05:37:54;;;;;;;32.30;20.38;;;6.00;99.90;;;;;;4987314;28;20096;-63
2021/12/12 05:40:23;;;;;;;34.78;21.40;;;6.00;99.90;;;;;;4986693;28;20104;-63
2021/12/12 05:42:54;;;;;;;31.63;21.70;;;6.00;99.90;;;;;;4983510;28;20141;-62
2021/12/12 05:45:20;;;;;;;33.88;21.75;;;6.00;99.90;;;;;;4987668;28;20037;-62
2021/12/12 05:47:47;;;;;;;37.88;22.83;;;6.00;99.90;;;;;;4985709;28;20034;-60
2021/12/12 05:50:16;;;;;;;30.48;19.67;;;6.00;99.90;;;;;;4974611;28;20062;-63
2021/12/12 05:52:43;;;;;;;32.20;21.23;;;6.00;99.90;;;;;;4989742;28;20113;-63
2021/12/12 05:55:11;;;;;;;32.67;22.25;;;6.10;99.90;;;;;;4985837;28;20656;-63
2021/12/12 05:57:37;;;;;;;33.90;22.35;;;6.10;99.90;;;;;;4989894;28;20057;-63
2021/12/12 06:00:12;;;;;;;34.80;22.08;;;6.10;99.90;;;;;;5002949;28;20144;-61
2021/12/12 06:02:38;;;;;;;34.97;22.73;;;6.10;99.90;;;;;;4985276;28;20055;-63
2021/12/12 06:05:05;;;;;;;35.90;22.17;;;6.10;99.90;;;;;;4970639;28;20045;-61
2021/12/12 06:07:32;;;;;;;38.67;22.83;;;6.10;99.90;;;;;;4986061;28;20080;-64
2021/12/12 06:10:03;;;;;;;38.25;23.75;;;6.10;99.90;;;;;;4985566;28;20042;-64
2021/12/12 06:12:33;;;;;;;35.97;23.33;;;6.20;99.90;;;;;;4989184;28;20123;-62
2021/12/12 06:15:00;;;;;;;37.42;23.10;;;6.20;99.90;;;;;;4989553;28;20508;-64
2021/12/12 06:17:27;;;;;;;41.25;24.88;;;6.20;99.90;;;;;;4987911;28;20056;-63
2021/12/12 06:19:55;;;;;;;39.22;24.58;;;6.20;99.90;;;;;;4988530;28;20069;-63
2021/12/12 06:22:21;;;;;;;42.75;24.65;;;6.20;99.90;;;;;;4983070;28;20287;-64
2021/12/12 06:24:49;;;;;;;37.45;23.50;;;6.20;99.90;;;;;;4990753;28;20595;-63
2021/12/12 06:27:20;;;;;;;37.42;24.52;;;6.30;99.90;;;;;;4966028;28;20391;-62
2021/12/12 06:29:49;;;;;;;42.30;24.15;;;6.30;99.90;;;;;;5005513;28;20184;-62
2021/12/12 06:32:16;;;;;;;36.95;24.10;;;6.30;99.90;;;;;;4981626;28;20042;-64
2021/12/12 06:34:42;;;;;;;40.20;24.25;;;6.40;99.90;;;;;;4989632;28;20050;-64
2021/12/12 06:37:09;;;;;;;39.72;23.75;;;6.40;99.90;;;;;;4980977;28;20072;-64
2021/12/12 06:39:37;;;;;;;40.50;23.45;;;6.40;99.90;;;;;;4971785;28;20396;-64
2021/12/12 06:42:05;;;;;;;42.55;24.42;;;6.50;99.90;;;;;;4970929;28;20042;-64
2021/12/12 06:44:31;;;;;;;40.95;23.85;;;6.40;99.90;;;;;;4991608;28;20041;-63
2021/12/12 06:46:59;;;;;;;40.95;24.83;;;6.40;99.90;;;;;;4988467;28;20034;-64
2021/12/12 06:49:25;;;;;;;47.08;25.15;;;6.50;99.90;;;;;;4975788;28;20468;-64
2021/12/12 06:51:55;;;;;;;43.22;24.90;;;6.50;99.90;;;;;;4989096;28;20507;-65
2021/12/12 06:54:23;;;;;;;42.90;24.75;;;6.60;99.90;;;;;;4990793;28;20165;-64
2021/12/12 06:56:51;;;;;;;44.72;25.17;;;6.60;99.90;;;;;;5007583;28;20034;-64
2021/12/12 06:59:18;;;;;;;46.08;26.30;;;6.60;99.90;;;;;;4990969;28;20800;-63
2021/12/12 07:01:44;;;;;;;46.65;26.50;;;6.60;99.90;;;;;;4996351;28;20049;-64
2021/12/12 07:04:13;;;;;;;46.47;25.27;;;6.70;99.90;;;;;;4993005;28;20046;-63
2021/12/12 07:06:39;;;;;;;50.95;27.02;;;6.70;99.90;;;;;;4962945;28;20144;-64
2021/12/12 07:09:08;;;;;;;50.03;26.98;;;6.70;99.90;;;;;;4994265;28;20041;-64
2021/12/12 07:11:36;;;;;;;53.05;25.58;;;6.70;99.90;;;;;;5020922;22;20056;-63
2021/12/12 07:14:04;;;;;;;56.83;26.88;;;6.70;99.90;;;;;;5018752;28;20049;-63
2021/12/12 07:16:31;;;;;;;56.45;26.45;;;6.70;99.90;;;;;;4987952;28;20054;-61
2021/12/12 07:18:57;;;;;;;54.88;26.15;;;6.70;99.90;;;;;;5008579;28;20041;-65
2021/12/12 07:21:26;;;;;;;61.10;27.92;;;6.70;99.90;;;;;;5014136;28;21285;-63
2021/12/12 07:23:52;;;;;;;61.53;27.98;;;6.70;99.90;;;;;;4983586;28;20503;-65
2021/12/12 07:26:21;;;;;;;63.78;28.40;;;6.70;99.90;;;;;;4970307;28;20052;-65
2021/12/12 07:28:48;;;;;;;62.30;27.30;;;6.70;99.90;;;;;;4981298;28;20044;-65
2021/12/12 07:31:18;;;;;;;55.72;25.25;;;6.70;99.90;;;;;;4983558;28;20233;-62
2021/12/12 07:33:48;;;;;;;55.83;26.20;;;6.70;99.90;;;;;;4989825;28;20041;-65
2021/12/12 07:36:16;;;;;;;65.90;28.30;;;6.70;99.90;;;;;;4984805;28;20132;-66
2021/12/12 07:38:45;;;;;;;56.63;26.27;;;6.70;99.90;;;;;;5011148;28;20060;-66
2021/12/12 07:41:12;;;;;;;63.63;25.60;;;6.70;99.90;;;;;;4980206;28;20053;-65
2021/12/12 07:43:38;;;;;;;64.97;27.63;;;6.70;99.90;;;;;;5001754;28;20041;-65
2021/12/12 07:46:05;;;;;;;62.35;27.15;;;6.70;99.90;;;;;;4979266;28;20046;-63
2021/12/12 07:48:32;;;;;;;78.20;29.45;;;6.70;99.90;;;;;;4995137;28;20048;-64
2021/12/12 07:51:01;;;;;;;66.97;28.35;;;6.80;99.90;;;;;;5010522;28;20041;-64
2021/12/12 07:53:28;;;;;;;71.18;30.63;;;6.70;99.90;;;;;;4985667;28;20041;-66
2021/12/12 07:55:56;;;;;;;68.68;29.45;;;6.70;99.90;;;;;;4982733;28;20082;-64
2021/12/12 07:58:22;;;;;;;77.30;31.45;;;6.70;99.90;;;;;;4988250;28;20107;-65
2021/12/12 08:00:50;;;;;;;71.38;30.10;;;6.80;99.90;;;;;;4965565;28;20124;-63
2021/12/12 08:03:21;;;;;;;72.22;28.88;;;6.70;99.90;;;;;;4969567;28;20492;-64
2021/12/12 08:05:47;;;;;;;74.47;30.40;;;6.80;99.90;;;;;;4997019;28;20054;-63
2021/12/12 08:08:13;;;;;;;71.25;28.73;;;6.80;99.90;;;;;;4977679;28;20041;-73
2021/12/12 08:10:43;;;;;;;64.18;27.80;;;6.80;99.90;;;;;;4969101;28;20077;-64
2021/12/12 08:13:12;;;;;;;64.75;28.75;;;6.80;99.90;;;;;;4967100;28;20112;-62
2021/12/12 08:15:38;;;;;;;68.55;28.42;;;6.80;99.90;;;;;;4990642;28;20450;-63
2021/12/12 08:18:07;;;;;;;79.68;31.13;;;6.80;99.90;;;;;;5006514;28;20149;-66
2021/12/12 08:20:34;;;;;;;69.15;29.77;;;6.80;99.90;;;;;;4980743;28;20800;-63
2021/12/12 08:23:04;;;;;;;66.65;26.60;;;6.70;99.90;;;;;;4963423;28;20060;-64
2021/12/12 08:25:32;;;;;;;78.57;31.10;;;6.80;99.90;;;;;;4974888;28;20057;-64
2021/12/12 08:28:02;;;;;;;75.93;30.50;;;6.90;99.90;;;;;;4989284;28;20041;-65
2021/12/12 08:30:30;;;;;;;81.05;30.15;;;6.80;99.90;;;;;;4965292;28;20049;-63
2021/12/12 08:32:56;;;;;;;77.47;31.88;;;6.90;99.90;;;;;;4993020;28;20041;-63
2021/12/12 08:35:24;;;;;;;85.60;31.77;;;6.90;99.90;;;;;;5001735;28;20600;-66
2021/12/12 08:37:50;;;;;;;89.43;32.80;;;6.90;99.90;;;;;;4983814;28;20045;-66
2021/12/12 08:40:27;;;;;;;84.22;33.63;;;6.90;99.90;;;;;;4985125;28;21156;-63
2021/12/12 08:42:55;;;;;;;90.00;31.58;;;6.90;99.90;;;;;;4983196;28;20477;-63
2021/12/12 08:45:25;;;;;;;85.38;30.40;;;6.90;99.90;;;;;;4983880;28;20061;-63
2021/12/12 08:47:52;;;;;;;88.55;32.05;;;6.90;99.90;;;;;;4980933;28;20045;-63
2021/12/12 08:50:23;;;;;;;95.78;33.90;;;7.00;99.90;;;;;;4984450;28;20041;-65
2021/12/12 08:52:50;;;;;;;94.32;34.15;;;7.00;99.90;;;;;;4959504;28;20051;-67
2021/12/12 08:55:23;;;;;;;96.13;34.70;;;7.00;99.90;;;;;;4994025;28;20049;-63
2021/12/12 08:58:03;;;;;;;97.35;35.30;;;7.00;99.90;;;;;;4984975;28;20084;-66
2021/12/12 09:00:34;;;;;;;101.22;35.13;;;7.00;99.90;;;;;;4970643;28;20049;-65
2021/12/12 09:03:01;;;;;;;107.63;36.50;;;7.00;99.90;;;;;;4996943;28;20438;-64
2021/12/12 09:05:35;;;;;;;104.55;36.83;;;7.00;99.90;;;;;;4982712;28;20081;-66
2021/12/12 09:08:10;;;;;;;109.10;37.53;;;7.00;99.90;;;;;;4997096;28;20048;-66
2021/12/12 09:11:07;;;;;;;119.07;36.45;;;7.10;99.90;;;;;;4992299;28;20049;-63
2021/12/12 09:13:58;;;;;;;116.63;37.78;;;7.10;99.90;;;;;;5004774;28;20052;-66
2021/12/12 09:16:34;;;;;;;113.25;37.88;;;7.10;99.90;;;;;;4996264;28;20092;-65
2021/12/12 09:19:06;;;;;;;103.82;37.13;;;7.10;99.90;;;;;;4999613;28;20037;-64
2021/12/12 09:21:49;;;;;;;118.75;39.25;;;7.10;99.90;;;;;;4978740;28;20052;-66
2021/12/12 09:24:31;;;;;;;112.25;37.15;;;7.10;99.90;;;;;;4995318;28;20145;-66
2021/12/12 09:27:01;;;;;;;114.60;38.50;;;7.10;99.90;;;;;;4995608;28;20057;-63
2021/12/12 09:29:47;;;;;;;106.35;36.80;;;7.10;99.90;;;;;;4985000;28;20064;-66
2021/12/12 09:32:34;;;;;;;112.13;37.58;;;7.10;99.90;;;;;;4978006;28;20038;-64
2021/12/12 09:35:22;;;;;;;106.80;36.67;;;7.20;99.90;;;;;;4983854;28;20048;-63
2021/12/12 09:38:00;;;;;;;115.88;38.80;;;7.20;99.90;;;;;;4969884;28;20559;-66
2021/12/12 09:40:57;;;;;;;128.68;39.70;;;7.20;99.90;;;;;;4969835;28;20377;-66
2021/12/12 09:43:42;;;;;;;113.30;38.15;;;7.20;99.90;;;;;;4996293;28;20053;-64
2021/12/12 09:46:19;;;;;;;118.20;36.60;;;7.30;99.90;;;;;;4999498;28;20044;-65
2021/12/12 09:52:10;;;;;;;120.22;38.65;;;7.30;99.90;;;;;;5004932;28;20053;-63
2021/12/12 09:55:00;;;;;;;116.53;38.00;;;7.30;99.90;;;;;;5019190;28;20045;-63
2021/12/12 09:57:39;;;;;;;122.18;38.67;;;7.40;99.90;;;;;;4992222;28;20132;-66
2021/12/12 10:00:49;;;;;;;132.15;38.00;;;7.40;99.90;;;;;;4978118;28;20049;-66
2021/12/12 10:03:17;;;;;;;115.97;38.90;;;7.40;99.90;;;;;;4927739;28;20496;-64
2021/12/12 10:05:52;;;;;;;129.35;38.55;;;7.40;99.90;;;;;;4946731;28;22270;-64
2021/12/12 10:08:34;;;;;;;111.15;38.38;;;7.50;99.90;;;;;;4949803;28;20416;-64
2021/12/12 10:11:32;;;;;;;114.53;38.00;;;7.50;99.90;;;;;;4993877;28;20042;-63
2021/12/12 10:14:02;;;;;;;124.03;39.05;;;7.50;99.90;;;;;;4946339;28;20152;-64
2021/12/12 10:16:39;;;;;;;117.47;37.67;;;7.60;99.90;;;;;;5003650;28;20088;-64
2021/12/12 10:19:13;;;;;;;115.70;39.38;;;7.60;99.90;;;;;;4979141;28;20064;-63
2021/12/12 10:22:09;;;;;;;108.35;36.65;;;7.60;99.90;;;;;;4975132;28;20049;-67
2021/12/12 10:24:43;;;;;;;113.63;35.17;;;7.70;99.90;;;;;;5014909;28;20649;-63
2021/12/12 10:27:23;;;;;;;103.18;35.55;;;7.70;99.90;;;;;;4978891;28;20045;-67
2021/12/12 10:30:17;;;;;;;105.88;35.53;;;7.70;99.90;;;;;;4998457;28;20045;-65
2021/12/12 10:33:15;;;;;;;100.70;33.88;;;7.80;99.90;;;;;;4986452;28;20063;-65
2021/12/12 10:36:07;;;;;;;100.25;34.03;;;7.80;99.90;;;;;;5010359;28;20037;-67
2021/12/12 10:38:37;;;;;;;94.15;33.15;;;7.80;99.90;;;;;;5015739;28;20093;-64
2021/12/12 10:41:26;;;;;;;101.43;35.30;;;7.80;99.90;;;;;;5009005;28;20048;-63
2021/12/12 10:43:59;;;;;;;91.90;31.77;;;7.80;99.90;;;;;;4986273;28;20047;-66
2021/12/12 10:46:32;;;;;;;100.90;34.08;;;7.90;99.90;;;;;;5014665;28;20442;-64
2021/12/12 10:49:07;;;;;;;109.57;33.67;;;7.90;99.90;;;;;;4976368;28;20038;-64
2021/12/12 10:51:45;;;;;;;98.97;33.88;;;7.90;99.90;;;;;;5016856;28;20122;-62
2021/12/12 10:54:26;;;;;;;96.07;33.63;;;7.90;99.90;;;;;;4998056;28;20042;-62
2021/12/12 10:57:05;;;;;;;106.53;35.45;;;8.00;99.90;;;;;;4988254;28;20131;-62
2021/12/12 10:59:36;;;;;;;96.30;35.40;;;8.00;99.90;;;;;;4995870;28;20099;-62
2021/12/12 11:02:08;;;;;;;99.43;32.42;;;8.00;99.90;;;;;;4983907;28;20049;-66
2021/12/12 11:04:37;;;;;;;91.75;30.63;;;8.00;99.90;;;;;;4988581;28;20056;-64
2021/12/12 11:07:12;;;;;;;84.72;30.70;;;8.00;99.90;;;;;;4989968;28;20124;-66
2021/12/12 11:09:50;;;;;;;93.10;31.48;;;8.00;99.90;;;;;;4979330;28;20057;-63
2021/12/12 11:12:51;;;;;;;81.68;29.92;;;8.00;99.90;;;;;;4976099;28;20029;-66
2021/12/12 11:15:53;;;;;;;76.60;29.70;;;8.00;99.90;;;;;;5001041;28;20479;-64
2021/12/12 11:18:51;;;;;;;79.43;28.98;;;8.10;99.90;;;;;;4986512;28;20045;-63
2021/12/12 11:21:40;;;;;;;73.05;28.25;;;8.10;99.90;;;;;;4987974;28;20045;-65
2021/12/12 11:24:32;;;;;;;69.30;25.85;;;8.10;99.90;;;;;;4967215;28;20045;-64
2021/12/12 11:27:04;;;;;;;73.95;26.50;;;8.10;99.90;;;;;;5015728;28;20037;-63
2021/12/12 11:30:04;;;;;;;76.45;28.27;;;8.10;99.90;;;;;;4992789;28;20042;-63
2021/12/12 11:32:36;;;;;;;62.63;25.25;;;8.20;99.90;;;;;;4968895;28;20053;-64
2021/12/12 11:35:07;;;;;;;65.22;25.25;;;8.20;99.90;;;;;;5012063;28;20589;-65
2021/12/12 11:37:51;;;;;;;58.05;23.60;;;8.20;99.90;;;;;;4985558;28;20104;-63
2021/12/12 11:40:27;;;;;;;60.15;24.08;;;8.20;99.90;;;;;;4999183;28;20039;-63
2021/12/12 11:43:02;;;;;;;59.33;24.88;;;8.20;99.90;;;;;;5014496;28;20045;-64
2021/12/12 11:45:39;;;;;;;52.13;23.15;;;8.20;99.90;;;;;;4995620;28;20408;-64
2021/12/12 11:48:12;;;;;;;51.25;21.63;;;8.20;99.90;;;;;;5015518;28;20069;-66
2021/12/12 11:50:57;;;;;;;;;;;8.30;99.90;;;;;;5005037;28;20130;-67
2021/12/12 11:53:46;;;;;;;57.55;23.33;;;8.20;99.90;;;;;;4987929;28;20446;-66
2021/12/12 11:56:17;;;;;;;70.53;26.55;;;8.30;99.90;;;;;;4989867;28;20067;-65
2021/12/12 11:59:16;;;;;;;61.78;26.40;;;8.20;99.90;;;;;;5009509;28;20120;-64
2021/12/12 12:01:47;;;;;;;71.43;26.80;;;8.30;99.90;;;;;;5003667;28;21816;-64
2021/12/12 12:04:35;;;;;;;60.03;25.00;;;8.30;99.90;;;;;;5007208;28;20088;-64
2021/12/12 12:07:22;;;;;;;78.28;28.08;;;8.30;99.90;;;;;;5017599;28;20484;-65
2021/12/12 12:10:13;;;;;;;70.80;27.15;;;8.30;99.90;;;;;;4967388;28;20044;-66
2021/12/12 12:12:57;;;;;;;64.22;26.50;;;8.30;99.90;;;;;;4982766;28;20049;-63
2021/12/12 12:15:49;;;;;;;76.35;28.20;;;8.30;99.90;;;;;;4982533;28;20129;-64
2021/12/12 12:18:49;;;;;;;65.28;27.65;;;8.40;99.90;;;;;;4990029;28;20049;-66
2021/12/12 12:21:33;;;;;;;64.70;26.40;;;8.40;99.90;;;;;;4999311;28;20123;-63
2021/12/12 12:24:38;;;;;;;66.38;26.63;;;8.40;99.90;;;;;;4999428;28;20069;-66
2021/12/12 12:27:08;;;;;;;63.95;26.30;;;8.40;99.90;;;;;;4980461;28;20553;-66
2021/12/12 12:29:59;;;;;;;63.25;26.42;;;8.50;99.90;;;;;;4988831;28;20088;-63
2021/12/12 12:33:02;;;;;;;65.43;29.02;;;8.50;99.90;;;;;;4989280;28;20072;-66
2021/12/12 12:36:06;;;;;;;59.75;25.92;;;8.50;99.90;;;;;;5016529;28;20049;-64
2021/12/12 12:39:02;;;;;;;72.93;26.65;;;8.60;99.90;;;;;;5015708;28;20120;-66
2021/12/12 12:41:53;;;;;;;59.72;24.65;;;8.60;99.90;;;;;;5014467;28;20044;-67
2021/12/12 12:44:37;;;;;;;57.38;23.55;;;8.60;99.90;;;;;;4977368;28;20060;-64
2021/12/12 12:47:40;;;;;;;56.55;25.85;;;8.60;99.90;;;;;;5013523;28;20041;-63
2021/12/12 12:50:42;;;;;;;59.63;24.83;;;8.60;99.90;;;;;;4981335;28;20052;-64
2021/12/12 12:53:42;;;;;;;81.63;29.13;;;8.70;99.90;;;;;;4993627;28;20046;-67
2021/12/12 12:56:45;;;;;;;59.05;24.42;;;8.70;99.90;;;;;;5014582;28;20120;-63
2021/12/12 12:59:40;;;;;;;76.57;26.27;;;8.70;99.90;;;;;;5016986;28;20045;-67
2021/12/12 13:02:17;;;;;;;66.03;24.83;;;8.70;99.90;;;;;;5020623;28;20056;-67
2021/12/12 13:05:01;;;;;;;74.00;26.83;;;8.80;99.90;;;;;;4995136;28;20068;-64
2021/12/12 13:08:14;;;;;;;61.55;25.73;;;8.80;99.90;;;;;;4997566;28;20107;-63
2021/12/12 13:10:41;;;;;;;60.88;24.52;;;8.80;99.90;;;;;;4974633;22;20059;-63
2021/12/12 13:13:28;;;;;;;56.08;25.63;;;8.90;99.90;;;;;;4992109;28;20045;-63
2021/12/12 13:16:32;;;;;;;49.05;22.83;;;8.90;99.90;;;;;;4992599;28;20041;-61
2021/12/12 13:19:09;;;;;;;47.38;20.90;;;8.90;99.90;;;;;;4960491;28;20092;-64
2021/12/12 13:21:38;;;;;;;44.97;21.75;;;8.90;99.90;;;;;;4994232;28;21275;-64
2021/12/12 13:24:15;;;;;;;46.45;21.55;;;9.00;99.90;;;;;;4985688;28;20044;-61
2021/12/12 13:27:03;;;;;;;46.85;20.75;;;9.00;99.90;;;;;;4999426;28;20060;-62
2021/12/12 13:29:43;;;;;;;38.78;18.75;;;9.00;99.90;;;;;;4981598;28;20056;-63
2021/12/12 13:32:25;;;;;;;38.10;17.90;;;9.10;99.90;;;;;;4993640;28;20410;-60
2021/12/12 13:35:04;;;;;;;36.53;18.08;;;9.10;99.90;;;;;;4979235;28;20032;-63
2021/12/12 13:37:43;;;;;;;33.72;16.92;;;9.10;99.90;;;;;;5005770;28;20045;-64